Latest Weather Observations for Salmon Gums RS

IDW60801

Issued at 6:33 pm WST Monday 16 January 2017 (issued every 30 minutes, with the page automatically refreshed every 10 minutes)

About weather observations | Map of weather stations | Latest weather observations for WA | Other Formats
Station Details ID: 012071 Name: SALMON GUMS RES.STN. Lat: -32.99 Lon: 121.62 Height: 249.0 m
Data from the previous 72 hours. | See also: Recent months at Salmon Gums RS
Date/Time
WST
Temp
°C
App
Temp
°C
Dew
Point
°C
Rel
Hum
%
Delta-T
°C
Wind Press
QNH
hPa
Press
MSL
hPa
Rain since
9am
mm
Dir  Spd
km/h
Gust
km/h
Spd
kts
Gust
kts
16/06:30pm 17.9 14.4 12.1 69 3.2 S 22 32 12 17 - - 0.0
16/06:00pm 17.9 13.8 12.8 72 2.9 S 26 37 14 20 - - 0.0
16/05:30pm 17.8 12.6 12.9 73 2.8 S 32 43 17 23 - - 0.0
16/05:00pm 18.4 14.8 13.1 71 3.0 S 24 35 13 19 - - 0.0
16/04:30pm 18.6 13.9 13.2 71 3.1 S 30 41 16 22 - - 0.0
16/04:00pm 19.1 14.9 13.5 70 3.2 S 28 37 15 20 - - 0.0
16/03:30pm 20.1 15.4 13.1 64 4.0 S 30 43 16 23 - - 0.0
16/03:00pm 21.1 16.2 12.5 58 4.9 S 30 37 16 20 - - 0.0
16/02:30pm 22.2 17.2 11.0 49 6.3 S 28 41 15 22 - - 0.0
16/02:00pm 23.1 18.2 11.2 47 6.7 S 28 35 15 19 - - 0.0
16/01:30pm 24.6 20.0 11.2 43 7.6 SSW 26 39 14 21 - - 0.0
16/01:00pm 25.1 20.4 10.6 40 8.2 S 26 37 14 20 - - 0.0
16/12:30pm 25.7 21.3 10.3 38 8.7 S 24 33 13 18 - - 0.0
16/12:00pm 26.6 22.8 11.1 38 8.9 S 22 35 12 19 - - 0.0
16/11:30am 25.4 21.6 11.2 41 8.1 SSW 22 32 12 17 - - 0.0
16/11:00am 24.2 20.0 9.8 40 8.0 S 22 33 12 18 - - 0.0
16/10:30am 24.3 20.3 10.6 42 7.7 S 22 35 12 19 - - 0.0
16/10:00am 24.5 21.4 12.1 46 7.1 S 20 30 11 16 - - 0.0
16/09:30am 21.5 18.6 12.4 56 5.2 S 19 28 10 15 - - 0.0
16/09:00am 19.6 16.2 12.6 64 4.0 SSW 22 28 12 15 - - 0.0
16/08:30am 18.7 15.7 12.7 68 3.4 SSW 20 26 11 14 - - 0.0
16/08:00am 18.4 15.8 13.3 72 2.9 SSW 19 26 10 14 - - 0.0
16/07:30am 18.1 15.7 13.8 76 2.5 SSW 19 28 10 15 - - 0.0
16/07:00am 17.2 15.1 13.5 79 2.1 SSW 17 26 9 14 - - 0.0
16/06:30am 16.7 14.5 13.2 80 2.0 SSW 17 26 9 14 - - 0.0
16/06:00am 16.8 14.7 13.7 82 1.8 S 17 20 9 11 - - 0.0
16/05:30am 16.7 15.1 13.8 83 1.7 S 15 19 8 10 - - 0.0
16/05:00am 16.5 14.9 14.0 85 1.4 S 15 22 8 12 - - 0.0
16/04:30am 16.3 15.1 14.1 87 1.3 SSW 13 22 7 12 - - 0.0
16/04:00am 16.4 14.5 14.2 87 1.3 SSW 17 26 9 14 - - 0.0
16/03:30am 16.7 15.3 14.5 87 1.3 SSW 15 24 8 13 - - 0.0
16/03:00am 16.8 15.4 14.6 87 1.3 SSW 15 20 8 11 - - 0.0
16/02:30am 16.9 15.2 14.7 87 1.3 SSW 17 24 9 13 - - 0.0
16/02:00am 17.3 16.0 14.9 86 1.4 SSW 15 22 8 12 - - 0.0
16/01:30am 17.1 15.4 14.7 86 1.4 SW 17 24 9 13 - - 0.0
16/01:00am 17.5 16.3 15.0 85 1.5 SW 15 22 8 12 - - 0.0
16/12:30am 17.5 16.3 15.0 85 1.5 SW 15 28 8 15 - - 0.0
16/12:00am 18.1 16.6 15.2 83 1.7 SW 17 30 9 16 - - 0.0
 
Date/Time
WST
Temp
°C
App
Temp
°C
Dew
Point
°C
Rel
Hum
%
Delta-T
°C
Wind Press
QNH
hPa
Press
MSL
hPa
Rain since
9am
mm
Dir  Spd
km/h
Gust
km/h
Spd
kts
Gust
kts
15/11:30pm 19.3 16.7 15.0 76 2.5 SW 22 37 12 20 - - 0.0
15/11:00pm 22.2 18.8 12.5 54 5.6 WSW 22 37 12 20 - - 0.0
15/10:56pm 24.5 20.6 9.3 38 8.4 WSW 20 33 11 18 - - 0.0
15/10:30pm 29.8 25.8 -2.6 12 14.9 N 9 13 5 7 - - 0.0
15/10:00pm 29.9 25.7 -3.7 11 15.2 NNE 9 13 5 7 - - 0.0
15/09:30pm 30.4 26.3 -3.3 11 15.4 NNE 9 15 5 8 - - 0.0
15/09:00pm 30.8 26.7 -3.0 11 15.6 NNE 9 13 5 7 - - 0.0
15/08:30pm 30.7 26.4 -1.9 12 15.3 NNE 11 13 6 7 - - 0.0
15/08:00pm 30.6 27.3 0.1 14 14.8 NNE 7 9 4 5 - - 0.0
15/07:30pm 32.0 28.7 0.2 13 15.6 NE 7 11 4 6 - - 0.0
15/07:00pm 33.7 29.5 1.5 13 16.3 NE 13 17 7 9 - - 0.0
15/06:30pm 34.9 29.5 1.3 12 17.1 NE 19 26 10 14 - - 0.0
15/06:00pm 35.7 31.9 1.9 12 17.5 ESE 11 17 6 9 - - 0.0
15/05:30pm 35.6 31.2 0.6 11 17.7 E 13 24 7 13 - - 0.0
15/05:00pm 36.3 32.0 1.2 11 18.0 E 13 20 7 11 - - 0.0
15/04:30pm 35.3 31.7 0.4 11 17.6 NE 9 19 5 10 - - 0.0
15/04:00pm 34.8 31.5 0.0 11 17.4 ENE 7 13 4 7 - - 0.0
15/03:30pm 35.8 32.8 0.8 11 17.8 WNW 6 9 3 5 - - 0.0
15/03:00pm 35.8 31.3 -0.5 10 18.1 NW 13 20 7 11 - - 0.0
15/02:30pm 36.0 31.1 -0.4 10 18.2 NE 15 24 8 13 - - 0.0
15/02:00pm 34.3 30.3 0.8 12 16.9 NNW 11 22 6 12 - - 0.0
15/01:30pm 35.2 30.6 -1.0 10 17.8 NNW 13 24 7 13 - - 0.0
15/01:00pm 34.8 30.3 0.0 11 17.4 N 13 24 7 13 - - 0.0
15/12:30pm 33.5 29.2 3.3 15 15.8 N 15 26 8 14 - - 0.0
15/12:00pm 32.8 29.1 4.6 17 15.0 NNE 13 28 7 15 - - 0.0
15/11:30am 32.3 28.1 5.7 19 14.3 N 17 26 9 14 - - 0.0
15/11:00am 31.1 27.2 6.9 22 13.2 N 17 30 9 16 - - 0.0
15/10:30am 30.1 26.6 7.3 24 12.5 N 15 24 8 13 - - 0.0
15/10:00am 29.1 24.8 7.7 26 11.7 N 20 30 11 16 - - 0.0
15/09:30am 28.2 24.2 9.0 30 10.7 N 20 30 11 16 - - 0.0
15/09:00am 26.8 22.5 9.2 33 9.8 N 22 33 12 18 - - 0.0
15/08:30am 25.9 22.4 10.1 37 8.9 NNE 19 28 10 15 - - 0.0
15/08:00am 24.3 20.2 10.2 41 7.9 N 22 33 12 18 - - 0.0
15/07:30am 23.1 19.6 10.9 46 6.8 NNE 20 33 11 18 - - 0.0
15/07:00am 21.7 18.3 11.1 51 5.9 NNE 20 33 11 18 - - 0.0
15/06:30am 20.1 17.3 11.3 57 4.9 NNE 17 32 9 17 - - 0.0
15/06:00am 18.5 16.8 11.3 63 4.0 NNE 11 19 6 10 - - 0.0
15/05:30am 17.2 15.5 11.2 68 3.3 NE 11 17 6 9 - - 0.0
15/05:00am 15.8 14.7 10.8 72 2.7 NE 7 13 4 7 - - 0.0
15/04:30am 15.8 15.2 10.3 70 2.9 NE 4 7 2 4 - - 0.0
15/04:00am 16.4 14.9 10.5 68 3.2 NE 9 13 5 7 - - 0.0
15/03:30am 16.9 15.0 10.5 66 3.4 ENE 11 20 6 11 - - 0.0
15/03:00am 17.6 15.1 10.9 65 3.7 ENE 15 22 8 12 - - 0.0
15/02:30am 17.9 15.3 10.8 63 3.9 ENE 15 20 8 11 - - 0.0
15/02:00am 18.4 15.5 11.0 62 4.1 ENE 17 24 9 13 - - 0.0
15/01:30am 18.6 16.1 10.9 61 4.2 ENE 15 20 8 11 - - 0.0
15/01:00am 19.0 16.5 11.1 60 4.4 ENE 15 19 8 10 - - 0.0
15/12:30am 19.9 17.4 11.1 57 4.9 ENE 15 20 8 11 - - 0.0
15/12:00am 20.4 18.3 11.3 56 5.1 ENE 13 20 7 11 - - 0.0
 
Date/Time
WST
Temp
°C
App
Temp
°C
Dew
Point
°C
Rel
Hum
%
Delta-T
°C
Wind Press
QNH
hPa
Press
MSL
hPa
Rain since
9am
mm
Dir  Spd
km/h
Gust
km/h
Spd
kts
Gust
kts
14/11:30pm 20.7 18.6 11.1 54 5.3 ENE 13 19 7 10 - - 0.0
14/11:00pm 21.1 19.0 11.2 53 5.5 E 13 19 7 10 - - 0.0
14/10:30pm 21.5 19.2 10.6 50 6.0 E 13 17 7 9 - - 0.0
14/10:00pm 22.5 19.9 10.6 47 6.6 E 15 20 8 11 - - 0.0
14/09:30pm 22.8 20.6 10.9 47 6.7 ESE 13 19 7 10 - - 0.0
14/09:00pm 23.2 20.2 10.6 45 7.0 SE 17 24 9 13 - - 0.0
14/08:30pm 23.9 20.7 9.9 41 7.7 SE 17 22 9 12 - - 0.0
14/08:00pm 25.0 21.8 10.1 39 8.3 SE 17 26 9 14 - - 0.0
14/07:30pm 25.6 22.1 10.2 38 8.6 SSE 19 28 10 15 - - 0.0
14/07:00pm 27.0 22.8 8.4 31 10.2 SSE 20 28 11 15 - - 0.0
14/06:30pm 31.4 28.9 1.7 15 14.9 ENE 4 7 2 4 - - 0.0
14/06:00pm 31.9 28.2 2.1 15 15.1 ENE 11 20 6 11 - - 0.0
14/05:30pm 32.1 29.1 2.2 15 15.2 NE 7 15 4 8 - - 0.0
14/05:00pm 32.5 29.2 2.5 15 15.4 E 9 15 5 8 - - 0.0
14/04:30pm 32.6 30.6 4.4 17 14.9 ESE 4 9 2 5 - - 0.0
14/04:00pm 32.1 29.6 4.8 18 14.5 ENE 7 20 4 11 - - 0.0
14/03:30pm 31.9 28.6 4.6 18 14.4 NE 11 20 6 11 - - 0.0
14/03:00pm 31.5 27.8 4.3 18 14.3 E 13 24 7 13 - - 0.0
14/02:30pm 31.6 28.4 5.2 19 14.1 E 11 17 6 9 - - 0.0
14/02:00pm 30.5 27.7 5.0 20 13.5 ESE 9 26 5 14 - - 0.0
14/01:30pm 30.9 28.5 5.3 20 13.6 E 7 20 4 11 - - 0.0
14/01:00pm 29.6 26.5 5.6 22 12.7 E 11 20 6 11 - - 0.0
14/12:30pm 28.8 25.3 5.6 23 12.2 E 13 19 7 10 - - 0.0
14/12:00pm 28.7 25.3 6.1 24 12.0 NE 13 24 7 13 - - 0.0
14/11:30am 27.2 23.4 6.0 26 11.2 ENE 15 26 8 14 - - 0.0
14/11:00am 27.1 23.4 6.5 27 10.9 ENE 15 28 8 15 - - 0.0
14/10:30am 24.7 21.8 6.4 31 9.6 ENE 11 22 6 12 - - 0.0
14/10:00am 23.6 20.6 7.7 36 8.5 ENE 13 22 7 12 - - 0.0
14/09:30am 22.2 18.9 8.0 40 7.5 ENE 15 24 8 13 - - 0.0
14/09:00am 20.3 17.2 8.9 48 6.1 E 15 20 8 11 - - 0.0
14/08:30am 18.9 16.8 9.9 56 4.8 NE 11 20 6 11 - - 0.0
14/08:00am 17.6 14.7 9.8 60 4.2 NE 15 20 8 11 - - 0.0
14/07:30am 16.7 13.1 9.9 64 3.6 NE 19 28 10 15 - - 0.0
14/07:00am 15.5 12.3 10.1 70 2.9 NE 17 26 9 14 - - 0.0
14/06:30am 14.2 12.1 9.6 74 2.4 NE 11 17 6 9 - - 0.0
14/06:00am 11.6 11.6 9.7 88 1.0 CALM 0 6 0 3 - - 0.0
14/05:30am 8.5 7.7 6.3 86 1.0 CALM 0 0 0 0 - - 0.0
14/05:00am 8.6 7.3 6.2 85 1.1 NE 2 2 1 1 - - 0.0
14/04:30am 10.1 8.8 7.7 85 1.2 NE 4 7 2 4 - - 0.0
14/04:00am 10.2 8.4 8.1 87 1.0 ENE 7 11 4 6 - - 0.0
14/03:30am 9.4 7.6 7.0 85 1.1 E 6 9 3 5 - - 0.0
14/03:00am 9.5 7.6 6.9 84 1.2 E 6 7 3 4 - - 0.0
14/02:30am 9.4 7.5 6.7 83 1.3 E 6 7 3 4 - - 0.0
14/02:00am 10.2 8.4 7.3 82 1.4 E 6 7 3 4 - - 0.0
14/01:30am 10.6 8.6 7.3 80 1.6 E 7 9 4 5 - - 0.0
14/01:00am 11.4 9.2 7.9 79 1.7 E 9 11 5 6 - - 0.0
14/12:30am 11.5 9.3 7.8 78 1.8 E 9 11 5 6 - - 0.0
14/12:00am 11.8 9.6 7.7 76 2.0 E 9 11 5 6 - - 0.0
 
Date/Time
WST
Temp
°C
App
Temp
°C
Dew
Point
°C
Rel
Hum
%
Delta-T
°C
Wind Press
QNH
hPa
Press
MSL
hPa
Rain since
9am
mm
Dir  Spd
km/h
Gust
km/h
Spd
kts
Gust
kts
13/11:30pm 12.8 9.9 8.3 74 2.3 ESE 13 17 7 9 - - 0.0
13/11:00pm 13.3 10.5 8.6 73 2.4 ESE 13 19 7 10 - - 0.0
13/10:30pm 13.7 10.1 8.5 71 2.6 ESE 17 24 9 13 - - 0.0
13/10:00pm 14.0 10.8 8.6 70 2.8 SE 15 24 8 13 - - 0.0
13/09:30pm 14.3 11.2 8.7 69 2.9 SE 15 22 8 12 - - 0.0
13/09:00pm 14.9 11.5 9.1 68 3.0 SE 17 24 9 13 - - 0.0
13/08:30pm 15.7 11.3 8.9 64 3.5 SE 22 30 12 16 - - 0.0
13/08:00pm 16.5 12.4 7.7 56 4.5 SSE 19 26 10 14 - - 0.0
13/07:30pm 17.3 13.2 7.9 54 4.8 SSE 19 26 10 14 - - 0.0
13/07:00pm 18.2 13.9 7.9 51 5.3 S 20 30 11 16 - - 0.0

Other Formats:

Comma delimited format used in spreadsheet applications
http://www.bom.gov.au/fwo/IDW60801/IDW60801.95639.axf

JavaScript Object Notation format (JSON) in row-major order
http://www.bom.gov.au/fwo/IDW60801/IDW60801.95639.json